sim
Sign-in with your pilot id or email,
or register
Callsign
Passwort

Schedule Details

Flight Number: OEF9064
Departure: Toronto Pearson International Airport (CYYZ) at 15:05
Arrival: Los Angeles International Airport (KLAX) at 19:50

Weather Information
Getting current METAR information for CYYZ 191200Z 08009KT 15SM FEW080 FEW100 12/05 A2985 RMK AC1AC1 SLP113
Getting current METAR information for KLAX 191153Z 11006KT 10SM BKN020 OVC045 11/09 A2988 RMK AO2 RAB07E32 SLP115 P0001 60008 70008 T01110094 10150 20111 58017

Schedule Frequency

Route Map